Time;durP1;ratioP1;P1;durP2;ratioP2;P2;SDS_P1;SDS_P2;PMS_P1;PMS_P2;Temp;Humidity;BMP_temperature;BMP_pressure;BME280_temperature;BME280_humidity;BME280_pressure;Samples;Min_cycle;Max_cycle;Signal;HPM_P1;HPM_P2
2021/03/17 00:02:40;;;;;;;13.43;7.22;;;;;;;;;;5094395;28;20562;-59
2021/03/17 00:05:27;;;;;;;12.63;7.93;;;;;;;;;;5093696;28;20043;-59
2021/03/17 00:08:10;;;;;;;10.70;6.45;;;;;;;;;;5078671;28;20452;-59
2021/03/17 00:10:55;;;;;;;8.73;5.60;;;;;;;;;;5079107;28;20071;-58
2021/03/17 00:13:38;;;;;;;8.80;6.10;;;;;;;;;;5094234;28;20442;-58
2021/03/17 00:16:22;;;;;;;8.98;5.47;;;;;;;;;;5093724;28;20047;-59
2021/03/17 00:19:06;;;;;;;9.50;5.57;;;;;;;;;;5093996;28;20097;-57
2021/03/17 00:21:50;;;;;;;8.30;5.43;;;;;;;;;;5094251;28;20541;-58
2021/03/17 00:24:35;;;;;;;10.13;6.55;;;;;;;;;;5093308;28;20058;-59
2021/03/17 00:27:18;;;;;;;9.85;6.50;;;;;;;;;;5093474;28;20051;-59
2021/03/17 00:30:04;;;;;;;8.65;5.80;;;;;;;;;;5078859;28;20051;-58
2021/03/17 00:32:48;;;;;;;10.18;6.43;;;;;;;;;;5093774;28;20090;-58
2021/03/17 00:35:32;;;;;;;9.93;6.45;;;;;;;;;;5092371;28;20419;-57
2021/03/17 00:38:16;;;;;;;11.93;6.78;;;;;;;;;;5093084;28;20093;-59
2021/03/17 00:41:00;;;;;;;13.23;7.80;;;;;;;;;;5093848;28;20518;-58
2021/03/17 00:43:44;;;;;;;11.95;6.90;;;;;;;;;;5093888;28;20114;-58
2021/03/17 00:46:28;;;;;;;13.07;8.15;;;;;;;;;;5063537;28;20047;-59
2021/03/17 00:49:01;;;;;;;14.65;7.82;;;;;;;;;;5075448;28;20036;-59
2021/03/17 00:51:27;;;;;;;10.68;6.97;;;;;;;;;;5093238;28;20107;-59
2021/03/17 00:54:11;;;;;;;14.32;8.00;;;;;;;;;;5093731;28;20105;-59
2021/03/17 00:56:41;;;;;;;11.48;7.38;;;;;;;;;;5092767;28;20472;-57
2021/03/17 00:59:07;;;;;;;12.13;7.57;;;;;;;;;;5093430;28;20042;-58
2021/03/17 01:01:32;;;;;;;11.53;7.57;;;;;;;;;;5074256;28;20032;-58
2021/03/17 01:03:58;;;;;;;12.37;7.50;;;;;;;;;;5093363;28;20421;-59
2021/03/17 01:06:23;;;;;;;11.53;7.60;;;;;;;;;;5092739;28;20040;-59
2021/03/17 01:08:49;;;;;;;14.07;7.07;;;;;;;;;;5075124;28;20433;-58
2021/03/17 01:11:14;;;;;;;10.45;6.97;;;;;;;;;;5074977;28;20447;-58
2021/03/17 01:13:40;;;;;;;10.93;7.23;;;;;;;;;;5092546;28;20089;-59
2021/03/17 01:16:05;;;;;;;10.13;7.10;;;;;;;;;;5093127;28;20039;-57
2021/03/17 01:18:31;;;;;;;12.40;7.00;;;;;;;;;;5092564;28;20485;-58
2021/03/17 01:20:56;;;;;;;12.97;8.00;;;;;;;;;;5093082;28;20032;-58
2021/03/17 01:23:21;;;;;;;10.63;7.07;;;;;;;;;;5092453;28;20056;-58
2021/03/17 01:25:47;;;;;;;14.67;7.63;;;;;;;;;;5092991;28;20020;-58
2021/03/17 01:28:13;;;;;;;13.90;7.23;;;;;;;;;;5074809;28;20047;-59
2021/03/17 01:30:39;;;;;;;11.23;6.90;;;;;;;;;;5092221;28;20035;-58
2021/03/17 01:33:05;;;;;;;9.65;6.45;;;;;;;;;;5092533;28;20107;-58
2021/03/17 01:35:31;;;;;;;11.63;7.50;;;;;;;;;;5092220;28;20157;-58
2021/03/17 01:37:57;;;;;;;11.85;6.53;;;;;;;;;;5092737;28;20100;-58
2021/03/17 01:40:23;;;;;;;10.70;6.37;;;;;;;;;;5092840;28;20503;-58
2021/03/17 01:42:49;;;;;;;9.82;6.32;;;;;;;;;;5092923;28;20145;-58
2021/03/17 01:45:15;;;;;;;11.93;6.77;;;;;;;;;;5092551;28;20059;-58
2021/03/17 01:47:41;;;;;;;13.10;6.45;;;;;;;;;;5091645;28;20052;-59
2021/03/17 01:50:08;;;;;;;10.93;7.07;;;;;;;;;;5092343;28;20109;-58
2021/03/17 01:52:34;;;;;;;8.73;5.78;;;;;;;;;;5091204;28;20020;-57
2021/03/17 01:54:59;;;;;;;9.25;6.10;;;;;;;;;;5092436;28;20032;-58
2021/03/17 01:57:24;;;;;;;8.47;5.47;;;;;;;;;;5092285;28;20028;-58
2021/03/17 01:59:50;;;;;;;9.00;5.47;;;;;;;;;;5092072;28;20016;-59
2021/03/17 02:02:15;;;;;;;9.03;4.97;;;;;;;;;;5092350;28;20131;-58
2021/03/17 02:04:41;;;;;;;9.43;5.47;;;;;;;;;;5091627;28;20119;-58
2021/03/17 02:07:06;;;;;;;10.50;5.07;;;;;;;;;;5074253;28;20127;-58
2021/03/17 02:09:31;;;;;;;7.60;4.83;;;;;;;;;;5091598;28;20468;-58
2021/03/17 02:12:17;;;;;;;7.87;4.73;;;;;;;;;;5092249;28;20035;-58
2021/03/17 02:14:51;;;;;;;6.78;4.22;;;;;;;;;;5091082;28;20070;-59
2021/03/17 02:17:18;;;;;;;9.77;5.20;;;;;;;;;;5092283;28;20028;-59
2021/03/17 02:19:43;;;;;;;6.88;4.35;;;;;;;;;;5091190;28;20047;-58
2021/03/17 02:22:27;;;;;;;7.43;4.47;;;;;;;;;;5092187;28;20028;-58
2021/03/17 02:24:58;;;;;;;7.35;4.57;;;;;;;;;;5091156;28;20024;-58
2021/03/17 02:27:42;;;;;;;8.57;4.90;;;;;;;;;;5092138;28;20032;-58
2021/03/17 02:30:25;;;;;;;7.05;4.10;;;;;;;;;;5091958;28;20024;-58
2021/03/17 02:33:08;;;;;;;6.57;4.10;;;;;;;;;;5091073;28;20035;-59
2021/03/17 02:35:34;;;;;;;5.93;3.90;;;;;;;;;;5073110;28;20436;-59
2021/03/17 02:38:02;;;;;;;6.07;3.63;;;;;;;;;;5073875;28;20165;-59
2021/03/17 02:40:30;;;;;;;5.20;3.47;;;;;;;;;;5091811;28;20028;-59
2021/03/17 02:42:58;;;;;;;6.15;4.10;;;;;;;;;;5091042;28;20115;-58
2021/03/17 02:45:28;;;;;;;13.80;3.85;;;;;;;;;;5091805;28;20038;-59
2021/03/17 02:48:14;;;;;;;6.28;3.80;;;;;;;;;;5090651;28;20044;-57
2021/03/17 02:50:41;;;;;;;5.10;3.15;;;;;;;;;;5090175;28;20485;-58
2021/03/17 02:53:07;;;;;;;5.22;3.40;;;;;;;;;;5073588;28;20032;-58
2021/03/17 02:55:34;;;;;;;5.47;4.03;;;;;;;;;;5091663;28;20024;-58
2021/03/17 02:58:00;;;;;;;8.15;3.80;;;;;;;;;;5091658;28;20040;-58
2021/03/17 03:00:26;;;;;;;5.53;3.55;;;;;;;;;;5077229;28;20361;-58
2021/03/17 03:02:52;;;;;;;6.78;4.00;;;;;;;;;;5094731;28;20116;-58
2021/03/17 03:05:18;;;;;;;4.88;3.47;;;;;;;;;;5077416;28;20031;-58
2021/03/17 03:07:47;;;;;;;6.55;3.70;;;;;;;;;;5094730;28;20067;-59
2021/03/17 03:10:13;;;;;;;5.40;3.80;;;;;;;;;;5095403;28;20032;-58
2021/03/17 03:12:39;;;;;;;5.90;3.72;;;;;;;;;;5076617;28;20020;-58
2021/03/17 03:15:06;;;;;;;6.95;3.58;;;;;;;;;;5095416;28;20024;-58
2021/03/17 03:17:33;;;;;;;7.18;4.20;;;;;;;;;;5076950;28;20028;-58
2021/03/17 03:19:59;;;;;;;7.20;4.57;;;;;;;;;;5076314;28;20036;-58
2021/03/17 03:22:25;;;;;;;6.50;3.95;;;;;;;;;;5095215;28;20109;-58
2021/03/17 03:24:51;;;;;;;5.35;3.75;;;;;;;;;;5094664;28;20032;-57
2021/03/17 03:27:17;;;;;;;6.63;4.38;;;;;;;;;;5095379;28;20036;-57
2021/03/17 03:29:42;;;;;;;9.90;4.65;;;;;;;;;;5076283;28;20036;-58
2021/03/17 03:32:08;;;;;;;11.03;5.70;;;;;;;;;;5095217;28;20032;-58
2021/03/17 03:34:33;;;;;;;9.85;5.75;;;;;;;;;;5094853;28;20268;-58
2021/03/17 03:36:59;;;;;;;6.53;4.23;;;;;;;;;;5094419;28;20187;-58
2021/03/17 03:39:24;;;;;;;7.27;4.90;;;;;;;;;;5094480;28;20036;-58
2021/03/17 03:41:50;;;;;;;8.35;4.90;;;;;;;;;;5094588;28;20222;-58
2021/03/17 03:44:15;;;;;;;6.73;5.00;;;;;;;;;;5094947;28;20024;-59
2021/03/17 03:46:41;;;;;;;7.43;4.77;;;;;;;;;;5094722;28;20435;-62
2021/03/17 03:49:07;;;;;;;7.57;4.68;;;;;;;;;;5076654;28;20173;-58
2021/03/17 03:51:34;;;;;;;6.97;4.45;;;;;;;;;;5076570;28;20036;-59
2021/03/17 03:53:59;;;;;;;;;;;;;;;;;;5076380;28;20067;-59
2021/03/17 03:56:34;;;;;;;7.17;3.87;;;;;;;;;;5076810;28;19940;-59
2021/03/17 03:59:02;;;;;;;7.50;4.60;;;;;;;;;;5093862;28;20044;-58
2021/03/17 04:01:37;;;;;;;7.90;4.95;;;;;;;;;;5059556;28;20032;-58
2021/03/17 04:04:04;;;;;;;9.57;6.28;;;;;;;;;;5075386;28;20076;-58
2021/03/17 04:06:32;;;;;;;13.82;7.45;;;;;;;;;;5076263;28;20032;-58
2021/03/17 04:08:59;;;;;;;11.40;7.35;;;;;;;;;;5093260;28;20501;-58
2021/03/17 04:11:25;;;;;;;11.88;7.80;;;;;;;;;;5075109;28;20063;-58
2021/03/17 04:13:50;;;;;;;11.67;7.70;;;;;;;;;;5075502;28;20059;-58
2021/03/17 04:16:17;;;;;;;13.90;7.67;;;;;;;;;;5076318;28;20138;-57
2021/03/17 04:18:44;;;;;;;14.23;7.88;;;;;;;;;;5075922;28;20036;-57
2021/03/17 04:21:13;;;;;;;12.20;7.78;;;;;;;;;;5093814;28;20032;-58
2021/03/17 04:23:39;;;;;;;16.63;8.70;;;;;;;;;;5095015;28;20035;-57
2021/03/17 04:26:05;;;;;;;15.55;9.98;;;;;;;;;;5075800;28;20484;-58
2021/03/17 04:28:31;;;;;;;11.82;8.02;;;;;;;;;;5094247;28;20028;-59
2021/03/17 04:30:58;;;;;;;13.73;8.15;;;;;;;;;;5093458;28;20039;-57
2021/03/17 04:33:24;;;;;;;13.48;9.52;;;;;;;;;;5094113;28;20078;-57
2021/03/17 04:35:53;;;;;;;16.03;9.50;;;;;;;;;;5093798;28;20075;-62
2021/03/17 04:38:20;;;;;;;14.40;9.90;;;;;;;;;;5093635;28;20472;-58
2021/03/17 04:40:46;;;;;;;15.07;9.15;;;;;;;;;;5094082;28;20016;-58
2021/03/17 04:43:12;;;;;;;17.98;11.27;;;;;;;;;;5093430;28;20037;-58
2021/03/17 04:45:38;;;;;;;17.35;10.98;;;;;;;;;;5075530;28;20032;-58
2021/03/17 04:48:05;;;;;;;17.05;8.63;;;;;;;;;;5092827;28;20039;-57
2021/03/17 04:50:30;;;;;;;18.33;10.68;;;;;;;;;;5093549;28;20028;-58
2021/03/17 04:52:55;;;;;;;21.33;11.80;;;;;;;;;;5092995;28;20115;-58
2021/03/17 04:55:21;;;;;;;26.70;11.03;;;;;;;;;;5093635;28;20077;-57
2021/03/17 04:57:47;;;;;;;21.90;11.23;;;;;;;;;;5093299;28;20044;-58
2021/03/17 05:00:17;;;;;;;21.73;12.02;;;;;;;;;;5092888;28;20036;-57
2021/03/17 05:02:44;;;;;;;17.75;9.95;;;;;;;;;;5092981;28;20052;-58
2021/03/17 05:05:10;;;;;;;14.43;8.90;;;;;;;;;;5074371;28;20544;-57
2021/03/17 05:07:39;;;;;;;14.55;9.05;;;;;;;;;;5093174;28;20115;-57
2021/03/17 05:10:06;;;;;;;13.93;7.18;;;;;;;;;;5074238;28;20036;-58
2021/03/17 05:12:31;;;;;;;13.07;6.57;;;;;;;;;;5093189;28;20055;-56
2021/03/17 05:14:58;;;;;;;13.37;7.00;;;;;;;;;;5074218;28;20070;-58
2021/03/17 05:17:23;;;;;;;11.38;6.07;;;;;;;;;;5075037;28;20028;-58
2021/03/17 05:19:49;;;;;;;10.43;6.30;;;;;;;;;;5092828;28;20097;-58
2021/03/17 05:22:15;;;;;;;12.53;5.37;;;;;;;;;;5091770;28;20565;-58
2021/03/17 05:24:40;;;;;;;10.35;5.57;;;;;;;;;;5092977;28;20024;-59
2021/03/17 05:27:07;;;;;;;6.47;4.27;;;;;;;;;;5092430;28;20077;-57
2021/03/17 05:29:33;;;;;;;9.00;5.53;;;;;;;;;;5092673;28;20737;-57
2021/03/17 05:31:59;;;;;;;10.15;6.55;;;;;;;;;;5073947;28;20043;-58
2021/03/17 05:34:25;;;;;;;9.25;5.45;;;;;;;;;;5092122;28;20441;-57
2021/03/17 05:36:50;;;;;;;8.87;5.97;;;;;;;;;;5092457;28;20190;-59
2021/03/17 05:39:15;;;;;;;10.77;5.77;;;;;;;;;;5091999;28;20044;-58
2021/03/17 05:41:41;;;;;;;8.80;5.80;;;;;;;;;;5091330;28;20036;-57
2021/03/17 05:44:07;;;;;;;7.73;4.67;;;;;;;;;;5090890;28;20024;-58
2021/03/17 05:46:33;;;;;;;10.20;4.45;;;;;;;;;;5091884;28;20482;-57
2021/03/17 05:48:59;;;;;;;5.93;3.72;;;;;;;;;;5091255;28;20024;-58
2021/03/17 05:51:25;;;;;;;5.78;3.75;;;;;;;;;;5092539;28;20060;-58
2021/03/17 05:53:50;;;;;;;6.30;3.50;;;;;;;;;;5092203;28;20063;-57
2021/03/17 05:56:16;;;;;;;6.53;2.97;;;;;;;;;;5091710;28;20460;-57
2021/03/17 05:58:44;;;;;;;7.13;2.80;;;;;;;;;;5091883;28;20039;-57
2021/03/17 06:01:11;;;;;;;7.78;2.47;;;;;;;;;;5091194;28;20028;-57
2021/03/17 06:03:37;;;;;;;7.70;2.63;;;;;;;;;;5091837;28;20078;-57
2021/03/17 06:06:03;;;;;;;5.80;3.23;;;;;;;;;;5073650;28;20071;-57
2021/03/17 06:08:31;;;;;;;4.18;2.75;;;;;;;;;;5073873;28;20280;-57
2021/03/17 06:10:57;;;;;;;3.72;2.58;;;;;;;;;;5092132;28;20028;-56
2021/03/17 06:13:24;;;;;;;4.85;2.50;;;;;;;;;;5073339;28;20093;-56
2021/03/17 06:15:51;;;;;;;5.32;2.78;;;;;;;;;;5091988;28;20104;-57
2021/03/17 06:18:21;;;;;;;4.97;2.47;;;;;;;;;;5073132;28;20036;-57
2021/03/17 06:20:47;;;;;;;8.82;3.42;;;;;;;;;;5092115;28;20451;-57
2021/03/17 06:23:15;;;;;;;6.40;2.80;;;;;;;;;;5073089;28;20044;-57
2021/03/17 06:25:42;;;;;;;6.10;2.85;;;;;;;;;;5091891;28;20044;-57
2021/03/17 06:28:08;;;;;;;5.95;3.00;;;;;;;;;;5091149;28;20123;-56
2021/03/17 06:30:34;;;;;;;6.50;3.30;;;;;;;;;;5091747;28;20079;-56
2021/03/17 06:32:59;;;;;;;4.80;2.87;;;;;;;;;;5090551;28;20025;-58
2021/03/17 06:35:25;;;;;;;4.40;2.47;;;;;;;;;;5090676;28;20051;-58
2021/03/17 06:37:51;;;;;;;5.15;2.78;;;;;;;;;;5091742;28;20157;-57
2021/03/17 06:40:22;;;;;;;9.60;3.35;;;;;;;;;;5091128;28;20054;-58
2021/03/17 06:42:48;;;;;;;8.23;3.15;;;;;;;;;;5056209;28;20039;-57
2021/03/17 06:45:14;;;;;;;4.50;2.80;;;;;;;;;;5073073;28;20031;-58
2021/03/17 06:47:39;;;;;;;7.45;3.15;;;;;;;;;;5091362;28;20463;-58
2021/03/17 06:50:12;;;;;;;6.53;3.23;;;;;;;;;;5091642;28;20309;-57
2021/03/17 06:52:43;;;;;;;7.63;3.10;;;;;;;;;;5091533;28;20431;-57
2021/03/17 06:55:11;;;;;;;5.95;2.88;;;;;;;;;;5072728;28;20056;-58
2021/03/17 06:57:37;;;;;;;4.22;2.85;;;;;;;;;;5091392;28;20016;-57
2021/03/17 07:00:32;;;;;;;9.50;3.00;;;;;;;;;;5091513;28;20131;-57
2021/03/17 07:03:03;;;;;;;5.95;3.67;;;;;;;;;;5087683;28;20047;-58
2021/03/17 07:05:38;;;;;;;4.25;2.80;;;;;;;;;;5090209;28;20638;-56
2021/03/17 07:08:04;;;;;;;8.20;3.35;;;;;;;;;;5091182;28;20032;-57
2021/03/17 07:10:31;;;;;;;3.88;2.55;;;;;;;;;;5090596;28;20352;-58
2021/03/17 07:12:57;;;;;;;4.78;2.80;;;;;;;;;;5091010;28;20028;-56
2021/03/17 07:15:23;;;;;;;18.10;3.65;;;;;;;;;;5072487;28;20047;-57
2021/03/17 07:17:49;;;;;;;7.38;3.40;;;;;;;;;;5091477;28;20464;-57
2021/03/17 07:20:33;;;;;;;11.73;3.63;;;;;;;;;;5072778;28;20032;-57
2021/03/17 07:23:18;;;;;;;10.20;3.90;;;;;;;;;;5091244;28;20031;-57
2021/03/17 07:26:01;;;;;;;8.60;3.70;;;;;;;;;;5091215;28;20054;-56
2021/03/17 07:28:27;;;;;;;8.13;4.13;;;;;;;;;;5069237;28;20032;-57
2021/03/17 07:30:52;;;;;;;5.88;2.75;;;;;;;;;;5073244;28;20061;-58
2021/03/17 07:33:22;;;;;;;5.33;2.07;;;;;;;;;;5071562;28;20494;-58
2021/03/17 07:35:48;;;;;;;5.68;2.33;;;;;;;;;;5071146;28;20085;-59
2021/03/17 07:38:14;;;;;;;4.10;2.20;;;;;;;;;;5084337;28;20288;-56
2021/03/17 07:40:44;;;;;;;3.92;2.20;;;;;;;;;;5090958;28;20068;-56
2021/03/17 07:43:10;;;;;;;4.30;2.40;;;;;;;;;;5110953;28;20081;-57
2021/03/17 07:45:35;;;;;;;5.07;2.28;;;;;;;;;;5112938;28;20032;-56
2021/03/17 07:48:05;;;;;;;4.67;2.30;;;;;;;;;;5114999;28;20550;-56
2021/03/17 07:50:31;;;;;;;3.72;2.25;;;;;;;;;;5113782;28;20030;-57
2021/03/17 07:52:57;;;;;;;6.63;2.50;;;;;;;;;;5114452;28;20028;-58
2021/03/17 07:55:23;;;;;;;7.22;2.80;;;;;;;;;;5096258;28;20034;-57
2021/03/17 07:57:48;;;;;;;5.20;2.20;;;;;;;;;;5114645;28;20036;-57
2021/03/17 08:00:14;;;;;;;8.00;3.00;;;;;;;;;;5114459;28;20369;-57
2021/03/17 08:02:39;;;;;;;3.50;1.90;;;;;;;;;;5075061;28;20040;-56
2021/03/17 08:05:05;;;;;;;10.47;3.27;;;;;;;;;;5092666;28;20345;-56
2021/03/17 08:07:31;;;;;;;6.22;2.20;;;;;;;;;;5075389;28;20115;-58
2021/03/17 08:09:57;;;;;;;12.83;4.20;;;;;;;;;;5113657;28;20086;-57
2021/03/17 08:12:24;;;;;;;8.90;2.63;;;;;;;;;;5113760;28;20024;-57
2021/03/17 08:14:49;;;;;;;6.90;2.40;;;;;;;;;;5095840;28;20731;-57
2021/03/17 08:17:29;;;;;;;6.47;2.90;;;;;;;;;;5114258;28;20032;-56
2021/03/17 08:20:13;;;;;;;5.05;2.80;;;;;;;;;;5114123;28;20090;-57
2021/03/17 08:22:38;;;;;;;6.72;2.50;;;;;;;;;;5112924;28;20796;-57
2021/03/17 08:25:04;;;;;;;3.63;1.90;;;;;;;;;;5114295;28;20032;-56
2021/03/17 08:27:29;;;;;;;7.38;2.65;;;;;;;;;;5095487;28;20023;-57
2021/03/17 08:30:21;;;;;;;4.40;2.10;;;;;;;;;;5078529;28;20107;-57
2021/03/17 08:32:51;;;;;;;5.38;2.17;;;;;;;;;;5091654;28;20039;-57
2021/03/17 08:35:16;;;;;;;4.15;2.28;;;;;;;;;;5114139;28;20023;-57
2021/03/17 08:37:48;;;;;;;4.07;1.57;;;;;;;;;;5111619;28;20360;-57
2021/03/17 08:40:28;;;;;;;2.60;1.13;;;;;;;;;;5095342;28;20263;-57
2021/03/17 08:42:54;;;;;;;4.90;1.35;;;;;;;;;;5114002;28;20032;-57
2021/03/17 08:45:20;;;;;;;3.17;1.55;;;;;;;;;;5078760;28;20019;-56
2021/03/17 08:47:47;;;;;;;5.35;1.77;;;;;;;;;;5094761;28;20042;-56
2021/03/17 08:50:15;;;;;;;4.18;1.80;;;;;;;;;;5113316;28;20047;-56
2021/03/17 08:52:43;;;;;;;2.92;1.40;;;;;;;;;;5112582;28;20048;-56
2021/03/17 08:55:12;;;;;;;4.60;1.70;;;;;;;;;;5113714;28;20106;-56
2021/03/17 08:57:51;;;;;;;3.00;1.40;;;;;;;;;;5112126;28;20039;-58
2021/03/17 09:00:35;;;;;;;2.53;1.10;;;;;;;;;;5095288;28;20397;-58
2021/03/17 09:03:00;;;;;;;4.30;1.20;;;;;;;;;;5113172;28;20027;-57
2021/03/17 09:05:27;;;;;;;2.20;1.10;;;;;;;;;;5094104;28;20042;-57
2021/03/17 09:07:52;;;;;;;;;;;;;;;;;;5094759;28;20050;-57
2021/03/17 09:10:17;;;;;;;4.50;1.17;;;;;;;;;;5095289;28;19908;-58
2021/03/17 09:12:43;;;;;;;3.60;1.20;;;;;;;;;;5112579;28;20040;-57
2021/03/17 09:15:08;;;;;;;5.17;1.27;;;;;;;;;;5094241;28;20054;-58
2021/03/17 09:17:42;;;;;;;3.97;1.10;;;;;;;;;;5091621;28;20032;-58
2021/03/17 09:20:10;;;;;;;6.63;1.47;;;;;;;;;;5093184;28;20050;-58
2021/03/17 09:22:44;;;;;;;6.07;1.40;;;;;;;;;;5073984;28;20677;-58
2021/03/17 09:25:14;;;;;;;2.07;1.00;;;;;;;;;;5092780;28;20265;-58
2021/03/17 09:27:47;;;;;;;4.60;1.03;;;;;;;;;;5091138;28;20306;-58
2021/03/17 09:30:13;;;;;;;4.13;1.20;;;;;;;;;;5073163;28;20336;-58
2021/03/17 09:32:39;;;;;;;4.13;1.83;;;;;;;;;;5073939;28;20256;-59
2021/03/17 09:35:06;;;;;;;4.83;1.30;;;;;;;;;;5092414;28;20074;-58
2021/03/17 09:37:31;;;;;;;8.13;1.70;;;;;;;;;;5073326;28;20356;-59
2021/03/17 09:39:56;;;;;;;3.50;1.40;;;;;;;;;;5092316;28;20390;-58
2021/03/17 09:42:22;;;;;;;4.00;1.67;;;;;;;;;;5090318;28;20032;-58
2021/03/17 09:44:54;;;;;;;6.67;1.30;;;;;;;;;;5090997;28;20032;-58
2021/03/17 09:47:24;;;;;;;7.20;2.20;;;;;;;;;;5073749;28;20121;-58
2021/03/17 09:49:50;;;;;;;7.57;1.20;;;;;;;;;;5073666;28;20280;-58
2021/03/17 09:52:15;;;;;;;4.37;1.00;;;;;;;;;;5091968;28;20259;-58
2021/03/17 09:54:40;;;;;;;3.97;1.33;;;;;;;;;;5091914;28;20464;-58
2021/03/17 09:57:06;;;;;;;4.83;1.50;;;;;;;;;;5092054;28;20157;-57
2021/03/17 09:59:33;;;;;;;5.85;1.20;;;;;;;;;;5090727;28;20031;-57
2021/03/17 10:02:09;;;;;;;8.35;3.35;;;;;;;;;;5092038;28;20039;-58
2021/03/17 10:04:44;;;;;;;14.10;5.05;;;;;;;;;;5096822;28;20120;-58
2021/03/17 10:07:10;;;;;;;3.33;1.20;;;;;;;;;;5095634;28;20111;-57
2021/03/17 10:09:36;;;;;;;6.45;1.95;;;;;;;;;;5073543;28;20257;-60
2021/03/17 10:12:04;;;;;;;5.43;1.70;;;;;;;;;;5091924;28;20043;-59
2021/03/17 10:14:30;;;;;;;6.87;1.77;;;;;;;;;;5091736;28;20034;-58
2021/03/17 10:16:56;;;;;;;7.15;1.45;;;;;;;;;;5073224;28;20339;-59
2021/03/17 10:19:21;;;;;;;3.22;1.40;;;;;;;;;;5092340;28;20049;-57
2021/03/17 10:21:48;;;;;;;8.27;1.73;;;;;;;;;;5072898;28;20016;-57
2021/03/17 10:24:13;;;;;;;3.45;1.25;;;;;;;;;;5057196;28;20086;-56
2021/03/17 10:26:39;;;;;;;7.13;1.53;;;;;;;;;;5091225;28;20456;-58
2021/03/17 10:29:05;;;;;;;;;;;;;;;;;;5091971;28;20075;-58
2021/03/17 10:31:34;;;;;;;9.77;3.17;;;;;;;;;;5091749;28;19904;-57
2021/03/17 10:34:00;;;;;;;13.53;4.00;;;;;;;;;;5091368;28;20131;-56
2021/03/17 10:36:26;;;;;;;8.82;1.85;;;;;;;;;;5072969;28;20333;-57
2021/03/17 10:38:52;;;;;;;5.55;1.55;;;;;;;;;;5090856;28;20036;-57
2021/03/17 10:41:36;;;;;;;9.65;1.80;;;;;;;;;;5073349;28;20055;-56
2021/03/17 10:44:15;;;;;;;6.53;2.17;;;;;;;;;;5073424;28;20452;-57
2021/03/17 10:46:57;;;;;;;6.60;1.50;;;;;;;;;;5072705;28;20616;-57
2021/03/17 10:49:23;;;;;;;5.17;1.83;;;;;;;;;;5091732;28;20269;-59
2021/03/17 10:51:52;;;;;;;2.40;1.10;;;;;;;;;;5071960;28;20602;-58
2021/03/17 10:54:27;;;;;;;8.63;2.10;;;;;;;;;;5072970;28;20067;-57
2021/03/17 10:56:53;;;;;;;7.07;1.93;;;;;;;;;;5090546;28;20260;-58
2021/03/17 10:59:44;;;;;;;4.60;1.40;;;;;;;;;;5073017;28;20807;-57
2021/03/17 11:02:18;;;;;;;4.03;1.17;;;;;;;;;;5086884;28;20036;-58
2021/03/17 11:05:03;;;;;;;4.67;1.30;;;;;;;;;;5087930;28;21911;-58
2021/03/17 11:07:45;;;;;;;4.77;1.40;;;;;;;;;;5070922;28;20274;-58
2021/03/17 11:10:26;;;;;;;4.17;1.43;;;;;;;;;;5081150;28;20264;-58
2021/03/17 11:12:52;;;;;;;7.23;2.50;;;;;;;;;;5072244;28;20355;-57
2021/03/17 11:15:40;;;;;;;7.80;2.47;;;;;;;;;;5091149;28;20812;-57
2021/03/17 11:18:05;;;;;;;6.90;1.90;;;;;;;;;;5090542;28;20542;-59
2021/03/17 11:20:31;;;;;;;4.67;1.93;;;;;;;;;;5093014;28;20272;-58
2021/03/17 11:22:56;;;;;;;5.07;1.70;;;;;;;;;;5094174;28;20048;-57
2021/03/17 11:25:23;;;;;;;9.73;2.27;;;;;;;;;;5095189;28;20059;-57
2021/03/17 11:27:48;;;;;;;7.20;1.70;;;;;;;;;;5093173;28;20066;-59
2021/03/17 11:30:14;;;;;;;7.60;1.83;;;;;;;;;;5094186;28;20627;-58
2021/03/17 11:32:39;;;;;;;9.10;1.73;;;;;;;;;;5093954;28;20032;-59
2021/03/17 11:35:05;;;;;;;5.27;1.57;;;;;;;;;;5093333;28;20264;-58
2021/03/17 11:37:31;;;;;;;3.60;1.15;;;;;;;;;;5094503;28;20062;-59
2021/03/17 11:39:57;;;;;;;6.38;3.17;;;;;;;;;;5075554;28;20483;-59
2021/03/17 11:42:22;;;;;;;5.10;1.33;;;;;;;;;;5080583;28;20024;-59
2021/03/17 11:44:47;;;;;;;7.97;1.97;;;;;;;;;;5093648;28;20384;-58
2021/03/17 11:47:13;;;;;;;9.67;1.83;;;;;;;;;;5108468;28;20464;-58
2021/03/17 11:49:39;;;;;;;6.67;1.50;;;;;;;;;;5074999;28;20032;-58
2021/03/17 11:52:04;;;;;;;6.82;1.13;;;;;;;;;;5094121;28;20016;-59
2021/03/17 11:54:30;;;;;;;2.53;1.20;;;;;;;;;;5094456;28;20028;-58
2021/03/17 11:56:56;;;;;;;5.83;1.10;;;;;;;;;;5093750;28;20265;-60
2021/03/17 11:59:21;;;;;;;4.70;1.70;;;;;;;;;;5094046;28;20480;-57
2021/03/17 12:01:46;;;;;;;3.87;1.30;;;;;;;;;;5093471;28;20076;-59
2021/03/17 12:04:12;;;;;;;4.87;1.53;;;;;;;;;;5093175;28;20123;-58
2021/03/17 12:06:37;;;;;;;4.23;1.50;;;;;;;;;;5094012;28;20032;-58
2021/03/17 12:09:03;;;;;;;9.60;2.67;;;;;;;;;;5092910;28;20024;-58
2021/03/17 12:11:29;;;;;;;5.90;1.25;;;;;;;;;;5093294;28;20028;-59
2021/03/17 12:13:54;;;;;;;7.85;1.42;;;;;;;;;;5091884;28;20126;-59
2021/03/17 12:16:20;;;;;;;4.23;1.23;;;;;;;;;;5093961;28;20523;-59
2021/03/17 12:18:45;;;;;;;6.43;1.40;;;;;;;;;;5093390;28;20398;-58
2021/03/17 12:21:11;;;;;;;2.83;0.88;;;;;;;;;;5093583;28;20024;-57
2021/03/17 12:23:37;;;;;;;6.95;0.93;;;;;;;;;;5075718;28;20040;-58
2021/03/17 12:26:03;;;;;;;3.58;0.80;;;;;;;;;;5043482;28;20050;-58
2021/03/17 12:28:28;;;;;;;2.78;0.90;;;;;;;;;;5058152;28;20399;-58
2021/03/17 12:30:53;;;;;;;2.20;0.67;;;;;;;;;;5091909;28;20123;-57
2021/03/17 12:33:19;;;;;;;3.70;1.27;;;;;;;;;;5093446;28;20269;-58
2021/03/17 12:35:44;;;;;;;3.83;0.90;;;;;;;;;;5091231;28;20038;-58
2021/03/17 12:38:10;;;;;;;2.67;1.27;;;;;;;;;;5093343;28;20064;-57
2021/03/17 12:40:35;;;;;;;7.53;1.17;;;;;;;;;;5093295;28;20012;-58
2021/03/17 12:43:00;;;;;;;2.07;0.87;;;;;;;;;;5112884;28;20042;-57
2021/03/17 12:45:27;;;;;;;7.03;0.97;;;;;;;;;;5112611;28;20083;-56
2021/03/17 12:47:52;;;;;;;5.07;1.40;;;;;;;;;;5112521;28;20027;-57
2021/03/17 12:50:18;;;;;;;4.18;1.35;;;;;;;;;;5113788;28;20164;-58
2021/03/17 12:52:43;;;;;;;2.53;0.82;;;;;;;;;;5094273;28;20035;-56
2021/03/17 12:55:10;;;;;;;2.50;0.67;;;;;;;;;;5113033;28;20048;-58
2021/03/17 12:57:35;;;;;;;2.90;0.82;;;;;;;;;;5089091;28;20095;-57
2021/03/17 13:00:02;;;;;;;4.03;1.05;;;;;;;;;;5090536;28;20378;-55
2021/03/17 13:02:28;;;;;;;3.13;0.90;;;;;;;;;;5091696;28;20487;-57
2021/03/17 13:04:56;;;;;;;4.60;2.00;;;;;;;;;;5090669;28;20288;-58
2021/03/17 13:07:22;;;;;;;2.10;0.90;;;;;;;;;;5092556;28;20133;-58
2021/03/17 13:09:47;;;;;;;2.57;1.20;;;;;;;;;;5090990;28;20284;-58
2021/03/17 13:12:12;;;;;;;2.97;0.57;;;;;;;;;;5091217;28;20268;-58
2021/03/17 13:14:38;;;;;;;5.17;0.63;;;;;;;;;;5091151;28;20379;-58
2021/03/17 13:17:03;;;;;;;2.75;1.05;;;;;;;;;;5074078;28;20376;-58
2021/03/17 13:19:29;;;;;;;4.05;1.17;;;;;;;;;;5091426;28;20127;-58
2021/03/17 13:21:54;;;;;;;7.07;2.27;;;;;;;;;;5073877;28;20123;-58
2021/03/17 13:24:20;;;;;;;4.47;1.07;;;;;;;;;;5092461;28;20081;-57
2021/03/17 13:26:45;;;;;;;3.37;1.00;;;;;;;;;;5091725;28;20512;-57
2021/03/17 13:29:11;;;;;;;6.07;1.77;;;;;;;;;;5092262;28;20097;-56
2021/03/17 13:31:37;;;;;;;2.75;1.10;;;;;;;;;;5091728;28;20457;-57
2021/03/17 13:34:02;;;;;;;4.47;1.10;;;;;;;;;;5072912;28;20376;-56
2021/03/17 13:36:28;;;;;;;2.10;1.02;;;;;;;;;;5072886;28;20024;-58
2021/03/17 13:38:53;;;;;;;1.60;1.03;;;;;;;;;;5054539;28;20476;-58
2021/03/17 13:41:18;;;;;;;4.00;1.33;;;;;;;;;;5073291;28;20120;-58
2021/03/17 13:43:44;;;;;;;6.93;0.87;;;;;;;;;;5090761;28;20036;-57
2021/03/17 13:46:11;;;;;;;3.15;0.95;;;;;;;;;;5057632;28;20079;-59
2021/03/17 13:48:36;;;;;;;3.80;0.90;;;;;;;;;;5092210;28;20032;-58
2021/03/17 13:51:02;;;;;;;4.57;1.10;;;;;;;;;;5091132;28;20284;-57
2021/03/17 13:53:27;;;;;;;5.53;1.73;;;;;;;;;;5091688;28;20469;-57
2021/03/17 13:55:53;;;;;;;4.63;0.90;;;;;;;;;;5073225;28;20261;-57
2021/03/17 13:58:18;;;;;;;5.05;1.00;;;;;;;;;;5073103;28;20396;-58
2021/03/17 14:00:44;;;;;;;2.45;0.88;;;;;;;;;;5057079;28;20035;-58
2021/03/17 14:03:09;;;;;;;3.47;1.00;;;;;;;;;;5056470;28;20040;-58
2021/03/17 14:05:35;;;;;;;2.42;1.15;;;;;;;;;;5091801;28;20048;-58
2021/03/17 14:08:01;;;;;;;4.40;1.60;;;;;;;;;;5072478;28;20093;-57
2021/03/17 14:10:27;;;;;;;4.85;1.30;;;;;;;;;;5073890;28;20036;-56
2021/03/17 14:12:53;;;;;;;4.23;1.30;;;;;;;;;;5091219;28;20099;-58
2021/03/17 14:15:20;;;;;;;4.63;1.13;;;;;;;;;;5092022;28;20085;-59
2021/03/17 14:17:46;;;;;;;4.32;1.17;;;;;;;;;;5091763;28;20036;-58
2021/03/17 14:20:13;;;;;;;0.80;0.60;;;;;;;;;;5091623;28;20100;-57
2021/03/17 14:22:38;;;;;;;;;;;;;;;;;;5092252;28;20676;-57
2021/03/17 14:25:05;;;;;;;7.90;2.80;;;;;;;;;;5073367;28;19911;-55
2021/03/17 14:27:30;;;;;;;4.83;1.50;;;;;;;;;;5091569;28;20032;-58
2021/03/17 14:29:56;;;;;;;2.97;0.93;;;;;;;;;;5090862;28;20304;-56
2021/03/17 14:32:21;;;;;;;4.07;0.90;;;;;;;;;;5057025;28;20024;-57
2021/03/17 14:34:47;;;;;;;3.47;1.00;;;;;;;;;;5091542;28;20023;-56
2021/03/17 14:37:13;;;;;;;7.15;1.98;;;;;;;;;;5073594;28;20039;-56
2021/03/17 14:39:39;;;;;;;7.63;1.08;;;;;;;;;;5073585;28;20043;-56
2021/03/17 14:42:04;;;;;;;5.93;2.30;;;;;;;;;;5057933;28;20040;-58
2021/03/17 14:44:29;;;;;;;4.10;2.10;;;;;;;;;;5092628;28;20024;-56
2021/03/17 14:46:55;;;;;;;7.00;1.20;;;;;;;;;;5072784;28;20112;-56
2021/03/17 14:49:21;;;;;;;5.43;1.77;;;;;;;;;;5072953;28;20055;-57